Time;durP1;ratioP1;P1;durP2;ratioP2;P2;SDS_P1;SDS_P2;PMS_P1;PMS_P2;Temp;Humidity;BMP_temperature;BMP_pressure;BME280_temperature;BME280_humidity;BME280_pressure;Samples;Min_cycle;Max_cycle;Signal;HPM_P1;HPM_P2
2023/10/14 00:02:21;;;;;;;22.10;10.18;;;;;;;16.36;100.00;98639.09;4469203;32;20115;-80
2023/10/14 00:04:52;;;;;;;22.58;11.20;;;;;;;16.30;100.00;98638.00;4469200;32;20119;-79
2023/10/14 00:07:24;;;;;;;29.35;12.35;;;;;;;16.45;100.00;98640.69;4468380;32;20778;-79
2023/10/14 00:09:52;;;;;;;22.00;11.10;;;;;;;16.39;100.00;98633.47;4469444;32;20133;-80
2023/10/14 00:12:20;;;;;;;22.30;10.68;;;;;;;16.36;100.00;98631.19;4469145;32;20092;-80
2023/10/14 00:14:53;;;;;;;19.40;9.65;;;;;;;16.27;100.00;98625.12;4469271;32;20165;-80
2023/10/14 00:17:21;;;;;;;20.42;9.73;;;;;;;16.28;100.00;98616.22;4483376;32;20109;-80
2023/10/14 00:19:55;;;;;;;19.17;10.68;;;;;;;16.42;100.00;98619.88;4484872;31;20520;-80
2023/10/14 00:22:26;;;;;;;32.90;11.02;;;;;;;16.43;100.00;98626.84;4484789;31;20110;-80
2023/10/14 00:24:54;;;;;;;25.65;10.65;;;;;;;16.35;100.00;98629.53;4484835;31;20144;-80
2023/10/14 00:27:23;;;;;;;20.15;9.98;;;;;;;16.31;100.00;98626.44;4484656;31;20092;-80
2023/10/14 00:30:05;;;;;;;21.55;10.93;;;;;;;16.30;100.00;98622.94;4484991;31;20230;-80
2023/10/14 00:32:35;;;;;;;19.80;10.05;;;;;;;16.20;100.00;98618.91;4484878;32;20099;-80
2023/10/14 00:35:04;;;;;;;23.80;10.93;;;;;;;16.26;100.00;98619.03;4484570;31;20204;-80
2023/10/14 00:37:34;;;;;;;24.42;10.77;;;;;;;16.39;100.00;98621.06;4484672;31;20088;-80
2023/10/14 00:40:10;;;;;;;22.52;10.38;;;;;;;16.47;100.00;98621.00;4484673;31;20096;-80
2023/10/14 00:42:41;;;;;;;23.95;10.15;;;;;;;16.52;100.00;98616.97;4484707;31;20080;-79
2023/10/14 00:45:09;;;;;;;24.52;10.57;;;;;;;16.46;100.00;98621.19;4484874;31;20713;-80
2023/10/14 00:47:40;;;;;;;18.98;10.38;;;;;;;16.36;100.00;98616.13;4484628;31;20120;-80
2023/10/14 00:50:22;;;;;;;23.65;9.82;;;;;;;16.22;100.00;98609.81;4484910;31;20471;-80
2023/10/14 00:52:54;;;;;;;21.80;10.27;;;;;;;16.15;100.00;98606.22;4484601;31;20148;-80
2023/10/14 00:55:27;;;;;;;22.33;10.40;;;;;;;16.06;100.00;98597.53;4469073;32;20151;-80
2023/10/14 00:57:54;;;;;;;19.25;9.85;;;;;;;15.99;100.00;98601.88;4468847;32;20092;-80
2023/10/14 01:00:33;;;;;;;20.83;9.75;;;;;;;15.86;100.00;98599.00;4467640;32;20168;-80
2023/10/14 01:03:03;;;;;;;19.42;9.40;;;;;;;15.78;100.00;98586.69;4467684;32;20100;-80
2023/10/14 01:05:32;;;;;;;28.05;10.55;;;;;;;15.76;100.00;98578.91;4468739;32;20104;-80
2023/10/14 01:08:02;;;;;;;20.77;10.57;;;;;;;15.70;100.00;98574.31;4468651;32;20093;-80
2023/10/14 01:10:29;;;;;;;23.42;10.43;;;;;;;15.71;100.00;98565.38;4468817;32;20097;-80
2023/10/14 01:12:57;;;;;;;23.40;11.32;;;;;;;15.88;100.00;98560.00;4468666;32;20085;-80
2023/10/14 01:15:30;;;;;;;23.42;10.35;;;;;;;15.82;100.00;98564.19;4470451;32;20156;-80
2023/10/14 01:17:58;;;;;;;17.25;9.57;;;;;;;15.73;100.00;98555.47;4484404;31;20093;-80
2023/10/14 01:20:37;;;;;;;21.98;10.10;;;;;;;15.77;100.00;98554.13;4484286;31;20105;-80
2023/10/14 01:23:08;;;;;;;19.45;10.40;;;;;;;15.72;100.00;98556.47;4484298;31;20110;-80
2023/10/14 01:25:47;;;;;;;20.48;10.13;;;;;;;15.77;100.00;98553.28;4484238;31;20116;-80
2023/10/14 01:28:30;;;;;;;24.37;11.00;;;;;;;15.65;100.00;98544.94;4484065;31;20131;-80
2023/10/14 01:31:38;;;;;;;22.20;10.82;;;;;;;15.59;100.00;98540.38;4484256;32;20103;-80
2023/10/14 01:34:07;;;;;;;28.73;10.90;;;;;;;15.51;100.00;98533.31;4483000;32;20431;-79
2023/10/14 01:36:41;;;;;;;26.87;10.63;;;;;;;15.49;100.00;98535.31;4483785;31;20088;-80
2023/10/14 01:39:11;;;;;;;25.27;10.82;;;;;;;15.42;100.00;98535.19;4484070;31;20197;-80
2023/10/14 01:41:39;;;;;;;23.05;10.30;;;;;;;15.46;100.00;98538.31;4484363;31;20093;-80
2023/10/14 01:44:09;;;;;;;23.90;10.25;;;;;;;15.39;100.00;98532.91;4483909;31;20138;-80
2023/10/14 01:46:39;;;;;;;25.50;10.43;;;;;;;15.51;100.00;98533.31;4483953;31;20485;-80
2023/10/14 01:49:19;;;;;;;23.70;10.65;;;;;;;15.45;100.00;98523.47;4483970;31;20092;-80
2023/10/14 01:51:49;;;;;;;20.48;10.10;;;;;;;15.42;100.00;98527.25;4483980;32;20104;-80
2023/10/14 01:54:17;;;;;;;20.98;10.35;;;;;;;15.32;100.00;98513.50;4474370;32;20131;-80
2023/10/14 01:56:46;;;;;;;24.45;10.90;;;;;;;15.37;100.00;98516.41;4468056;32;20104;-80
2023/10/14 01:59:16;;;;;;;32.40;12.43;;;;;;;15.26;100.00;98507.09;4468119;32;20092;-80
2023/10/14 02:01:44;;;;;;;22.20;10.35;;;;;;;15.18;100.00;98501.03;4468047;32;20088;-80
2023/10/14 02:04:14;;;;;;;26.67;11.40;;;;;;;15.47;100.00;98495.06;4468026;32;20097;-80
2023/10/14 02:07:01;;;;;;;24.85;10.65;;;;;;;15.67;100.00;98491.97;4467860;32;20100;-80
2023/10/14 02:09:29;;;;;;;23.85;10.68;;;;;;;15.57;100.00;98489.56;4467996;32;20089;-80
2023/10/14 02:11:57;;;;;;;25.37;12.30;;;;;;;15.72;100.00;98493.06;4468000;32;20446;-80
2023/10/14 02:14:24;;;;;;;19.33;9.98;;;;;;;15.63;100.00;98486.22;4468015;32;20101;-80
2023/10/14 02:16:52;;;;;;;24.20;11.30;;;;;;;15.66;100.00;98472.66;4478898;32;20104;-79
2023/10/14 02:19:36;;;;;;;23.15;10.68;;;;;;;15.71;100.00;98477.41;4483364;31;20160;-79
2023/10/14 02:22:10;;;;;;;24.15;11.12;;;;;;;15.66;100.00;98472.66;4483601;31;20068;-79
2023/10/14 02:24:38;;;;;;;26.35;11.63;;;;;;;15.68;100.00;98475.94;4483462;31;20081;-79
2023/10/14 02:27:11;;;;;;;25.65;11.15;;;;;;;15.63;100.00;98464.28;4483318;31;20150;-79
2023/10/14 02:29:46;;;;;;;33.13;14.35;;;;;;;15.54;100.00;98468.78;4483389;31;20096;-80
2023/10/14 02:32:14;;;;;;;27.98;13.02;;;;;;;15.54;100.00;98474.06;4485147;32;20117;-80
2023/10/14 02:34:45;;;;;;;25.05;11.50;;;;;;;15.46;100.00;98482.03;4485633;31;20149;-80
2023/10/14 02:37:15;;;;;;;22.00;10.82;;;;;;;15.40;100.00;98475.66;4485509;31;20061;-79
2023/10/14 02:39:43;;;;;;;28.48;12.35;;;;;;;15.35;100.00;98470.91;4485913;31;20111;-79
2023/10/14 02:42:14;;;;;;;25.37;12.37;;;;;;;15.55;100.00;98475.72;4485798;31;20122;-80
2023/10/14 02:44:48;;;;;;;20.33;11.27;;;;;;;15.48;100.00;98465.03;4485730;32;20091;-80
2023/10/14 02:47:19;;;;;;;25.70;11.57;;;;;;;15.52;100.00;98462.84;4485607;31;20446;-80
2023/10/14 02:49:53;;;;;;;30.15;12.15;;;;;;;15.57;100.00;98456.06;4485419;31;20092;-80
2023/10/14 02:52:29;;;;;;;25.33;13.60;;;;;;;15.58;100.00;98456.91;4485679;31;20106;-80
2023/10/14 02:57:47;;;;;;;34.70;14.30;;;;;;;15.66;100.00;98442.81;4469876;32;20097;-80
2023/10/14 03:00:29;;;;;;;32.80;15.73;;;;;;;15.63;100.00;98448.44;4469832;32;20145;-80
2023/10/14 03:03:09;;;;;;;31.20;14.70;;;;;;;15.61;100.00;98449.44;4469746;32;20089;-80
2023/10/14 03:05:51;;;;;;;31.62;14.38;;;;;;;15.61;100.00;98459.19;4469882;32;20462;-80
2023/10/14 03:08:20;;;;;;;30.25;13.93;;;;;;;15.52;100.00;98465.50;4470083;32;20077;-80
2023/10/14 03:10:59;;;;;;;29.25;13.98;;;;;;;15.57;100.00;98463.16;4470067;32;20161;-80
2023/10/14 03:13:29;;;;;;;30.60;13.88;;;;;;;15.52;100.00;98465.50;4469827;32;20499;-80
2023/10/14 03:15:58;;;;;;;27.62;13.60;;;;;;;15.44;100.00;98459.31;4474747;32;20195;-80
2023/10/14 03:18:37;;;;;;;38.75;13.43;;;;;;;15.37;100.00;98461.00;4485642;31;20092;-80
2023/10/14 03:21:09;;;;;;;29.20;13.52;;;;;;;15.26;100.00;98461.37;4484475;32;20532;-80
2023/10/14 03:23:38;;;;;;;23.52;13.48;;;;;;;15.19;100.00;98457.81;4485435;31;20102;-80
2023/10/14 03:26:15;;;;;;;32.85;14.57;;;;;;;15.00;100.00;98459.88;4485334;31;20131;-80
2023/10/14 03:28:46;;;;;;;32.28;13.52;;;;;;;14.85;100.00;98465.09;4485316;32;20453;-80
2023/10/14 03:31:19;;;;;;;29.90;13.93;;;;;;;14.65;100.00;98462.00;4485460;31;20133;-80
2023/10/14 03:33:46;;;;;;;26.45;13.65;;;;;;;14.63;100.00;98455.28;4485252;31;20545;-80
2023/10/14 03:36:17;;;;;;;31.48;13.50;;;;;;;14.79;100.00;98449.13;4485098;31;20160;-80
2023/10/14 03:38:55;;;;;;;29.25;13.73;;;;;;;14.97;100.00;98438.31;4485296;31;20504;-80
2023/10/14 03:41:29;;;;;;;23.48;13.18;;;;;;;14.88;100.00;98442.81;4485408;31;20092;-80
2023/10/14 03:46:35;;;;;;;32.58;14.40;;;;;;;14.92;100.00;98438.84;4485268;32;20171;-80
2023/10/14 03:49:25;;;;;;;24.23;13.07;;;;;;;14.91;100.00;98437.19;4485328;31;20156;-80
2023/10/14 03:51:57;;;;;;;26.77;13.52;;;;;;;14.77;100.00;98428.19;4485252;31;20409;-80
2023/10/14 03:54:26;;;;;;;27.37;14.02;;;;;;;14.81;100.00;98434.78;4474676;31;20149;-80
2023/10/14 03:56:56;;;;;;;29.35;14.23;;;;;;;14.80;100.00;98424.41;4469363;32;20084;-80
2023/10/14 03:59:26;;;;;;;24.63;12.55;;;;;;;14.75;100.00;98435.47;4469494;32;20526;-80
2023/10/14 04:01:57;;;;;;;33.17;14.60;;;;;;;14.53;100.00;98431.72;4469576;32;20111;-79
2023/10/14 04:04:28;;;;;;;31.87;14.57;;;;;;;14.50;100.00;98424.16;4469432;32;20111;-80
2023/10/14 04:09:40;;;;;;;31.58;14.68;;;;;;;14.42;100.00;98422.38;4469476;32;20165;-80
2023/10/14 04:12:09;;;;;;;29.27;15.10;;;;;;;14.33;100.00;98424.22;4469308;32;20466;-80
2023/10/14 04:14:37;;;;;;;33.88;15.18;;;;;;;14.36;100.00;98421.22;4469369;32;20088;-80
2023/10/14 04:17:21;;;;;;;43.15;14.13;;;;;;;14.31;100.00;98420.94;4481759;32;20558;-80
2023/10/14 04:20:13;;;;;;;30.30;14.40;;;;;;;14.46;100.00;98428.12;4485313;31;20115;-80
2023/10/14 04:22:41;;;;;;;36.17;15.48;;;;;;;14.23;100.00;98420.97;4485193;31;20084;-80
2023/10/14 04:30:32;;;;;;;31.37;15.18;;;;;;;14.13;100.00;98420.34;4484865;31;20092;-80
2023/10/14 04:35:33;;;;;;;27.67;13.40;;;;;;;14.17;100.00;98427.72;4484507;32;20096;-80
2023/10/14 04:38:17;;;;;;;26.40;13.75;;;;;;;14.18;100.00;98426.72;4484775;31;20111;-80
2023/10/14 04:40:53;;;;;;;36.05;14.93;;;;;;;14.20;100.00;98423.91;4484714;31;20746;-80
2023/10/14 04:45:55;;;;;;;32.22;14.50;;;;;;;14.05;100.00;98417.69;4484946;31;20174;-80
2023/10/14 04:48:35;;;;;;;33.25;15.80;;;;;;;14.30;100.00;98421.09;4484715;31;20198;-80
2023/10/14 04:51:09;;;;;;;33.85;15.20;;;;;;;14.41;100.00;98420.72;4484661;31;20096;-80
2023/10/14 04:53:42;;;;;;;33.13;14.40;;;;;;;14.43;100.00;98424.03;4479074;31;20092;-80
2023/10/14 04:56:10;;;;;;;35.83;15.85;;;;;;;14.48;100.00;98411.16;4468835;32;20111;-80
2023/10/14 04:58:40;;;;;;;30.62;14.75;;;;;;;14.49;100.00;98404.09;4468919;32;20093;-80
2023/10/14 05:01:17;;;;;;;27.10;14.82;;;;;;;14.54;100.00;98401.75;4468872;32;20534;-80
2023/10/14 05:03:50;;;;;;;31.20;15.68;;;;;;;14.49;100.00;98396.19;4469232;32;20115;-80
2023/10/14 05:06:18;;;;;;;36.90;16.42;;;;;;;14.38;100.00;98397.34;4468894;32;20149;-80
2023/10/14 05:08:56;;;;;;;35.13;14.87;;;;;;;14.25;100.00;98399.72;4468794;32;20156;-80
2023/10/14 05:11:25;;;;;;;31.37;14.70;;;;;;;14.15;100.00;98399.91;4468978;32;20097;-80
2023/10/14 05:14:14;;;;;;;29.85;14.63;;;;;;;14.18;100.00;98404.84;4468805;32;20104;-80
2023/10/14 05:16:57;;;;;;;29.50;15.70;;;;;;;14.13;100.00;98401.91;4478710;32;20639;-80
2023/10/14 05:19:41;;;;;;;28.55;15.77;;;;;;;14.12;100.00;98398.41;4484370;31;20092;-80
2023/10/14 05:22:19;;;;;;;31.73;16.42;;;;;;;14.11;100.00;98401.22;4484207;31;20446;-81
2023/10/14 05:24:48;;;;;;;36.58;16.30;;;;;;;14.10;100.00;98404.88;4484524;31;20093;-80
2023/10/14 05:27:19;;;;;;;36.47;16.00;;;;;;;14.13;100.00;98396.62;4484321;31;20084;-80
2023/10/14 05:29:51;;;;;;;35.75;17.30;;;;;;;14.19;100.00;98407.28;4484359;31;20136;-80
2023/10/14 05:32:24;;;;;;;28.95;15.25;;;;;;;14.28;100.00;98397.56;4484084;31;20448;-80
2023/10/14 05:34:53;;;;;;;28.55;15.63;;;;;;;14.40;100.00;98402.44;4470429;32;20146;-80
2023/10/14 05:37:21;;;;;;;37.40;17.20;;;;;;;14.45;100.00;98400.94;4484013;32;20096;-80
2023/10/14 05:39:54;;;;;;;36.72;15.93;;;;;;;14.56;100.00;98391.84;4484174;31;20088;-80
2023/10/14 05:42:22;;;;;;;35.08;16.83;;;;;;;14.65;100.00;98397.94;4484077;32;20512;-80
2023/10/14 05:44:57;;;;;;;35.97;16.50;;;;;;;14.69;100.00;98397.41;4484121;31;20092;-80
2023/10/14 05:47:27;;;;;;;36.42;15.70;;;;;;;14.85;100.00;98393.87;4483940;31;20163;-80
2023/10/14 05:49:55;;;;;;;29.00;16.17;;;;;;;14.95;100.00;98401.56;4483856;31;20097;-80
2023/10/14 05:52:25;;;;;;;31.92;16.02;;;;;;;15.05;100.00;98401.34;4483948;31;20136;-80
2023/10/14 05:54:53;;;;;;;34.00;15.52;;;;;;;15.17;100.00;98397.31;4470500;32;20135;-80
2023/10/14 05:57:22;;;;;;;29.00;15.63;;;;;;;15.29;100.00;98403.00;4468032;32;20490;-79
2023/10/14 05:59:50;;;;;;;32.35;15.93;;;;;;;15.40;100.00;98405.22;4468197;32;20119;-80
2023/10/14 06:02:18;;;;;;;32.67;15.52;;;;;;;15.54;100.00;98408.06;4468100;32;20093;-80
2023/10/14 06:04:50;;;;;;;34.55;16.15;;;;;;;15.61;100.00;98407.19;4468131;32;20153;-80
2023/10/14 06:07:18;;;;;;;35.33;15.65;;;;;;;15.70;100.00;98404.44;4469744;32;20085;-80
2023/10/14 06:09:45;;;;;;;32.17;16.12;;;;;;;15.83;100.00;98396.78;4470185;32;20093;-80
2023/10/14 06:12:14;;;;;;;30.58;17.25;;;;;;;15.78;100.00;98399.94;4470026;32;20094;-80
2023/10/14 06:14:42;;;;;;;35.03;17.58;;;;;;;15.74;100.00;98397.81;4470225;32;20592;-80
2023/10/14 06:17:11;;;;;;;34.85;16.40;;;;;;;15.95;100.00;98399.81;4483239;32;20464;-80
2023/10/14 06:19:39;;;;;;;34.20;16.73;;;;;;;16.07;100.00;98400.19;4485797;31;20553;-80
2023/10/14 06:22:13;;;;;;;30.33;15.45;;;;;;;16.26;100.00;98409.38;4485973;32;20160;-80
2023/10/14 06:24:42;;;;;;;;;;;;;;;16.39;100.00;98403.47;4486061;32;20192;-80
2023/10/14 06:27:20;;;;;;;31.77;15.75;;;;;;;16.50;100.00;98403.81;4485646;31;19991;-80
2023/10/14 06:29:50;;;;;;;32.47;16.17;;;;;;;16.63;100.00;98404.97;4484589;32;20088;-80
2023/10/14 06:32:18;;;;;;;32.63;15.93;;;;;;;16.77;100.00;98401.47;4485616;31;20097;-80
2023/10/14 06:34:57;;;;;;;33.05;15.70;;;;;;;16.85;100.00;98411.97;4485612;31;20168;-80
2023/10/14 06:37:26;;;;;;;33.38;17.08;;;;;;;16.94;100.00;98407.41;4485741;31;20464;-80
2023/10/14 06:39:56;;;;;;;36.05;17.08;;;;;;;17.14;100.00;98425.34;4485591;31;20482;-80
2023/10/14 06:42:26;;;;;;;35.40;16.50;;;;;;;17.15;100.00;98414.56;4485841;31;20097;-80
2023/10/14 06:44:55;;;;;;;34.85;16.30;;;;;;;17.23;100.00;98412.78;4485699;31;20188;-80
2023/10/14 06:47:23;;;;;;;33.33;16.52;;;;;;;17.28;100.00;98408.56;4485296;31;20131;-80
2023/10/14 06:49:54;;;;;;;38.75;16.75;;;;;;;17.40;100.00;98405.41;4485598;31;20172;-80
2023/10/14 06:52:21;;;;;;;33.13;16.85;;;;;;;17.43;100.00;98405.03;4485437;31;20127;-80
2023/10/14 06:54:51;;;;;;;33.47;16.65;;;;;;;17.49;100.00;98402.44;4472450;31;20092;-80
2023/10/14 06:57:18;;;;;;;32.33;16.27;;;;;;;17.62;100.00;98408.84;4469752;32;20111;-80
2023/10/14 06:59:46;;;;;;;36.25;16.55;;;;;;;17.61;100.00;98409.84;4469743;32;20081;-80
2023/10/14 07:02:13;;;;;;;29.30;16.52;;;;;;;17.80;100.00;98418.97;4469693;32;20505;-80
2023/10/14 07:04:41;;;;;;;35.95;15.95;;;;;;;17.80;100.00;98413.69;4469686;32;20196;-80
2023/10/14 07:07:09;;;;;;;31.00;15.88;;;;;;;17.95;100.00;98416.25;4469580;32;20115;-80
2023/10/14 07:09:39;;;;;;;33.65;15.63;;;;;;;17.94;100.00;98406.66;4469647;32;20096;-80
2023/10/14 07:12:15;;;;;;;30.48;15.82;;;;;;;18.13;100.00;98394.56;4469498;32;20152;-80
2023/10/14 07:14:46;;;;;;;27.13;16.00;;;;;;;18.24;100.00;98397.50;4469920;32;20093;-80
2023/10/14 07:17:25;;;;;;;33.55;16.30;;;;;;;18.32;100.00;98393.87;4482749;32;20100;-80
2023/10/14 07:19:53;;;;;;;30.83;15.10;;;;;;;18.41;100.00;98397.97;4485289;31;20106;-80
2023/10/14 07:22:20;;;;;;;29.30;15.50;;;;;;;18.59;100.00;98388.66;4485160;31;20440;-80
2023/10/14 07:24:50;;;;;;;31.05;15.60;;;;;;;18.56;100.00;98392.53;4485271;31;20562;-80
2023/10/14 07:27:20;;;;;;;30.77;15.25;;;;;;;18.62;100.00;98396.22;4485140;31;20088;-80
2023/10/14 07:29:47;;;;;;;27.08;14.90;;;;;;;18.61;100.00;98387.44;4485115;31;20157;-80
2023/10/14 07:32:15;;;;;;;31.12;15.93;;;;;;;18.62;100.00;98378.50;4485084;31;20096;-80
2023/10/14 07:34:43;;;;;;;27.48;15.23;;;;;;;18.73;100.00;98381.59;4484857;31;20088;-80
2023/10/14 07:37:13;;;;;;;28.85;15.65;;;;;;;18.70;100.00;98388.09;4485168;31;20100;-80
2023/10/14 07:39:40;;;;;;;24.17;15.85;;;;;;;18.76;100.00;98391.81;4484990;32;20663;-80
2023/10/14 07:42:13;;;;;;;27.27;15.30;;;;;;;18.83;100.00;98386.50;4485092;32;20146;-80
2023/10/14 07:44:40;;;;;;;28.83;15.07;;;;;;;18.87;100.00;98385.94;4485058;31;20092;-80
2023/10/14 07:47:10;;;;;;;27.62;15.05;;;;;;;18.97;100.00;98381.06;4485035;32;20176;-80
2023/10/14 07:49:38;;;;;;;28.02;14.43;;;;;;;19.04;100.00;98385.56;4484953;32;20568;-80
2023/10/14 07:52:14;;;;;;;31.17;14.70;;;;;;;19.21;100.00;98383.34;4484954;31;20172;-80
2023/10/14 07:54:42;;;;;;;24.67;14.32;;;;;;;19.34;100.00;98380.72;4472661;31;20096;-80
2023/10/14 07:57:12;;;;;;;26.17;14.70;;;;;;;19.34;100.00;98391.34;4469257;32;20119;-80
2023/10/14 07:59:41;;;;;;;26.40;14.23;;;;;;;19.40;100.00;98389.72;4469611;32;20084;-80
2023/10/14 08:02:15;;;;;;;29.73;14.93;;;;;;;19.53;100.00;98384.41;4469553;32;20445;-80
2023/10/14 08:04:46;;;;;;;28.62;14.63;;;;;;;19.30;100.00;98369.69;4469188;32;20101;-80
2023/10/14 08:07:14;;;;;;;31.58;14.65;;;;;;;19.42;100.00;98385.00;4469180;32;20088;-80
2023/10/14 08:09:41;;;;;;;25.67;14.80;;;;;;;19.56;100.00;98381.34;4469204;32;20111;-80
2023/10/14 08:12:09;;;;;;;26.08;14.48;;;;;;;19.58;100.00;98376.63;4468207;32;20109;-80
2023/10/14 08:14:36;;;;;;;25.55;15.00;;;;;;;19.48;100.00;98374.38;4469192;32;20093;-80
2023/10/14 08:17:11;;;;;;;29.30;15.30;;;;;;;19.74;100.00;98369.25;4481445;32;20169;-80
2023/10/14 08:19:43;;;;;;;30.62;15.70;;;;;;;19.84;100.00;98369.69;4484857;31;20106;-80
2023/10/14 08:22:14;;;;;;;25.67;13.18;;;;;;;19.96;100.00;98372.53;4484793;31;20210;-80
2023/10/14 08:24:42;;;;;;;29.87;15.45;;;;;;;20.13;100.00;98383.53;4484995;32;20085;-80
2023/10/14 08:27:12;;;;;;;28.12;15.05;;;;;;;20.20;100.00;98387.00;4484971;32;20581;-80
2023/10/14 08:29:41;;;;;;;25.50;14.63;;;;;;;20.28;100.00;98375.31;4483814;31;20061;-80
2023/10/14 08:32:09;;;;;;;25.15;14.02;;;;;;;20.52;100.00;98382.59;4484780;32;20118;-80
2023/10/14 08:34:37;;;;;;;25.62;13.20;;;;;;;20.61;100.00;98372.53;4484630;31;20502;-80
2023/10/14 08:37:04;;;;;;;24.25;12.80;;;;;;;20.71;99.21;98367.59;4485049;31;20394;-80
2023/10/14 08:39:32;;;;;;;23.48;12.45;;;;;;;20.70;97.57;98363.28;4484700;31;20089;-80
2023/10/14 08:42:04;;;;;;;27.30;12.40;;;;;;;20.71;97.18;98362.28;4484676;31;20092;-80
2023/10/14 08:44:33;;;;;;;22.17;12.07;;;;;;;20.63;95.97;98372.31;4484663;31;20115;-80
2023/10/14 08:47:00;;;;;;;23.70;12.37;;;;;;;20.72;95.16;98368.41;4483478;32;20134;-80
2023/10/14 08:49:33;;;;;;;19.92;11.50;;;;;;;20.80;95.14;98367.34;4484639;31;20431;-80
2023/10/14 08:52:04;;;;;;;19.48;11.85;;;;;;;21.03;95.36;98359.63;4484494;31;20088;-80
2023/10/14 08:54:31;;;;;;;24.87;12.48;;;;;;;21.08;94.16;98358.97;4473479;31;20100;-80
2023/10/14 08:56:59;;;;;;;26.70;13.38;;;;;;;21.16;94.11;98360.56;4468967;32;20115;-80
2023/10/14 08:59:27;;;;;;;28.98;14.02;;;;;;;21.30;92.73;98366.59;4468792;32;20120;-80
2023/10/14 09:01:56;;;;;;;28.25;12.32;;;;;;;21.35;92.37;98367.59;4468835;32;20127;-80
2023/10/14 09:04:31;;;;;;;22.35;13.62;;;;;;;21.48;91.53;98366.66;4467513;32;20109;-80
2023/10/14 09:07:00;;;;;;;25.12;12.85;;;;;;;21.13;92.13;98371.66;4468782;32;20111;-80
2023/10/14 09:09:31;;;;;;;22.40;12.60;;;;;;;21.15;91.56;98369.59;4468578;32;20097;-80
2023/10/14 09:12:13;;;;;;;23.10;12.37;;;;;;;21.12;92.01;98362.84;4467525;32;20092;-80
2023/10/14 09:14:41;;;;;;;25.20;12.55;;;;;;;21.18;93.06;98358.50;4468998;32;20130;-80
2023/10/14 09:17:09;;;;;;;26.42;13.40;;;;;;;21.44;92.09;98360.97;4481884;32;20446;-80
2023/10/14 09:19:46;;;;;;;24.33;12.93;;;;;;;21.55;90.90;98354.13;4484230;31;20137;-80
2023/10/14 09:22:25;;;;;;;22.95;13.15;;;;;;;21.52;90.64;98359.09;4484401;31;20101;-80
2023/10/14 09:24:58;;;;;;;24.55;13.55;;;;;;;21.45;90.64;98349.28;4484237;31;20092;-80
2023/10/14 09:27:26;;;;;;;;;;;;;;;21.55;90.23;98354.13;4484672;31;20115;-80
2023/10/14 09:29:57;;;;;;;22.75;12.10;;;;;;;21.58;90.12;98345.69;4484057;31;19994;-80
2023/10/14 09:32:24;;;;;;;29.87;13.02;;;;;;;21.54;90.77;98351.69;4484361;31;20141;-80
2023/10/14 09:34:52;;;;;;;22.75;12.85;;;;;;;21.62;90.12;98348.75;4483926;32;20088;-80
2023/10/14 09:37:21;;;;;;;24.85;13.25;;;;;;;21.76;90.21;98350.25;4484046;31;20084;-80
2023/10/14 09:39:57;;;;;;;24.85;13.27;;;;;;;21.79;88.86;98349.81;4484360;31;20089;-80
2023/10/14 09:42:31;;;;;;;24.50;13.68;;;;;;;21.60;89.21;98345.47;4484900;32;20747;-80
2023/10/14 09:45:10;;;;;;;27.02;13.05;;;;;;;21.60;90.28;98346.31;4484582;32;20176;-80
2023/10/14 09:47:40;;;;;;;26.73;13.20;;;;;;;21.88;89.82;98338.87;4485974;32;20096;-80
2023/10/14 09:50:13;;;;;;;31.02;14.23;;;;;;;21.98;88.80;98342.66;4485924;31;20088;-80
2023/10/14 09:52:42;;;;;;;23.45;13.32;;;;;;;22.17;90.05;98342.66;4484882;32;20085;-80
2023/10/14 09:55:13;;;;;;;27.95;14.87;;;;;;;22.46;87.19;98337.63;4469229;32;20181;-80
2023/10/14 09:57:45;;;;;;;30.02;14.68;;;;;;;22.45;85.67;98330.63;4469102;32;20227;-81
2023/10/14 10:00:12;;;;;;;27.50;13.80;;;;;;;22.41;84.82;98329.47;4468933;32;20092;-80
2023/10/14 10:02:43;;;;;;;28.75;14.32;;;;;;;22.49;85.36;98332.63;4470204;32;20112;-80
2023/10/14 10:05:17;;;;;;;25.52;14.20;;;;;;;22.61;84.31;98334.56;4468924;32;20160;-80
2023/10/14 10:08:24;;;;;;;31.98;14.90;;;;;;;22.53;83.49;98327.69;4468819;32;20084;-80
2023/10/14 10:10:52;;;;;;;25.70;14.00;;;;;;;22.42;84.60;98326.59;4468750;32;20089;-80
2023/10/14 10:13:23;;;;;;;24.08;13.75;;;;;;;22.39;83.70;98315.53;4469965;32;20123;-80
2023/10/14 10:16:02;;;;;;;26.92;14.10;;;;;;;22.59;83.47;98307.25;4473598;32;20452;-80
2023/10/14 10:18:59;;;;;;;19.95;13.50;;;;;;;22.72;83.45;98299.06;4485796;31;20444;-81
2023/10/14 10:21:34;;;;;;;25.35;13.75;;;;;;;22.97;84.29;98290.09;4485625;32;20481;-80
2023/10/14 10:24:09;;;;;;;26.00;13.93;;;;;;;22.85;83.92;98293.53;4485783;31;20434;-80
2023/10/14 10:26:56;;;;;;;27.25;13.10;;;;;;;23.20;83.31;98289.31;4485552;31;20475;-80
2023/10/14 10:29:25;;;;;;;22.45;13.02;;;;;;;23.06;84.25;98282.53;4485670;32;20092;-80
2023/10/14 10:32:19;;;;;;;23.65;13.88;;;;;;;23.02;83.07;98276.84;4485503;31;20112;-80
2023/10/14 10:35:07;;;;;;;22.67;12.50;;;;;;;22.64;83.28;98267.34;4485497;31;20199;-80
2023/10/14 10:37:46;;;;;;;22.02;12.85;;;;;;;22.86;79.92;98273.78;4485881;31;20722;-80
2023/10/14 10:40:17;;;;;;;22.48;11.88;;;;;;;22.95;81.07;98270.78;4485999;31;20133;-80
2023/10/14 10:43:07;;;;;;;21.92;11.82;;;;;;;23.09;80.22;98280.25;4485514;31;20096;-80
2023/10/14 10:45:36;;;;;;;20.37;11.85;;;;;;;23.31;80.73;98290.38;4485533;31;20114;-80
2023/10/14 10:48:07;;;;;;;24.20;12.30;;;;;;;23.17;80.52;98287.91;4485618;31;20122;-80
2023/10/14 10:50:40;;;;;;;25.05;12.77;;;;;;;23.29;80.74;98281.78;4484254;32;20524;-80
2023/10/14 10:53:07;;;;;;;25.02;12.60;;;;;;;23.53;77.13;98279.94;4483105;31;20102;-80
2023/10/14 10:55:36;;;;;;;22.52;12.45;;;;;;;23.42;76.76;98278.06;4469716;32;20100;-80
2023/10/14 10:58:08;;;;;;;20.05;11.77;;;;;;;23.27;77.52;98276.69;4468530;32;20128;-80
2023/10/14 11:00:38;;;;;;;21.15;11.95;;;;;;;23.41;77.47;98279.94;4469811;32;20077;-80
2023/10/14 11:03:06;;;;;;;20.75;11.15;;;;;;;23.63;76.42;98277.47;4469876;32;20124;-80
2023/10/14 11:05:36;;;;;;;20.77;12.18;;;;;;;23.90;75.24;98277.78;4469605;32;20153;-80
2023/10/14 11:08:04;;;;;;;19.85;11.35;;;;;;;24.10;74.42;98265.88;4469705;32;20556;-80
2023/10/14 11:10:34;;;;;;;18.73;11.95;;;;;;;24.12;74.50;98263.81;4469849;32;20100;-80
2023/10/14 11:13:03;;;;;;;18.27;11.82;;;;;;;24.19;74.57;98259.09;4469660;32;20117;-80
2023/10/14 11:15:31;;;;;;;21.55;12.07;;;;;;;24.20;74.09;98262.63;4471946;32;20104;-80
2023/10/14 11:18:00;;;;;;;23.50;11.75;;;;;;;24.36;73.92;98259.19;4485218;32;20553;-80
2023/10/14 11:20:33;;;;;;;21.80;11.27;;;;;;;24.39;72.84;98263.22;4485442;31;20454;-80
2023/10/14 11:23:08;;;;;;;25.30;13.20;;;;;;;24.46;71.50;98263.91;4484155;32;20115;-81
2023/10/14 11:25:49;;;;;;;24.20;13.25;;;;;;;24.49;71.22;98257.25;4485442;31;20528;-80
2023/10/14 11:28:18;;;;;;;26.30;11.80;;;;;;;24.22;71.88;98258.63;4485295;31;20097;-80
2023/10/14 11:30:47;;;;;;;21.33;12.13;;;;;;;24.42;72.94;98257.38;4485317;31;20118;-80
2023/10/14 11:33:19;;;;;;;20.37;11.23;;;;;;;24.46;72.24;98247.81;4485179;32;20084;-80
2023/10/14 11:35:51;;;;;;;21.50;11.00;;;;;;;24.29;70.72;98244.31;4485110;31;20093;-80
2023/10/14 11:38:19;;;;;;;20.62;11.95;;;;;;;24.27;71.42;98250.72;4485290;31;20442;-80
2023/10/14 11:40:49;;;;;;;24.17;11.95;;;;;;;24.39;69.83;98252.50;4485189;31;20096;-81
2023/10/14 11:43:17;;;;;;;20.70;11.57;;;;;;;24.22;69.32;98239.87;4483738;32;20155;-80
2023/10/14 11:45:46;;;;;;;16.17;9.80;;;;;;;24.36;69.74;98253.00;4484994;32;20556;-80
2023/10/14 11:48:30;;;;;;;22.60;10.75;;;;;;;24.53;69.12;98236.97;4485179;31;20119;-81
2023/10/14 11:50:59;;;;;;;19.12;10.65;;;;;;;24.69;69.24;98243.44;4485188;31;20130;-81
2023/10/14 11:53:28;;;;;;;18.33;10.90;;;;;;;24.72;69.17;98238.38;4480929;31;20117;-80